KBID

Block Island State Airport

Block Island, Rhode Island, USA
METAR KBID 171956Z AUTO 27015G24KT 10SM CLR 16/07 A2982 RMK AO2 PK WND 27029/1944 SLP102 T01560067
Observed Flight Rules
Oct-17 @ 19:56 UTC (32 minutes ago) Visual Flight Rules
Wind Visibility Clouds
270° at 15 knots
 Gusting to 24 knots
10 miles
  • Clear skies
Temperatures Readings
Current 16°C / 61°F
Dewpoint 7°C / 45°F
Humidity 55%
Altimeter 29.82" Hg
Pressure 1010.2 hPa
Elevation 33
METAR KBID 171956Z AUTO 27015G24KT 10SM CLR 16/07 A2982 RMK AO2 PK WND 27029/1944 SLP102 T01560067
Observed Flight Rules
Oct-17 @ 19:56 UTC
(32 minutes ago)
VFR
Wind Visibility
270° at 15 knots
 Gusting to 24 knots
10 miles
Clouds
  • Clear skies
Temperature Dewpoint
16°C / 61°F 7°C / 45°F
Humidity Altimeter Pressure
55% 29.82" Hg 1010.2 hPa